sensor_id;sensor_type;location;lat;lon;timestamp;P1;durP1;ratioP1;P2;durP2;ratioP2
5882;SDS011;2967;51.488;6.618;2022-08-07T00:03:10;4.70;;;4.20;;
5882;SDS011;2967;51.488;6.618;2022-08-07T00:08:34;7.47;;;4.30;;
5882;SDS011;2967;51.488;6.618;2022-08-07T00:14:06;3.70;;;3.30;;
5882;SDS011;2967;51.488;6.618;2022-08-07T00:19:31;4.30;;;3.53;;
5882;SDS011;2967;51.488;6.618;2022-08-07T00:25:15;4.77;;;3.50;;
5882;SDS011;2967;51.488;6.618;2022-08-07T00:30:41;3.83;;;3.40;;
5882;SDS011;2967;51.488;6.618;2022-08-07T00:36:04;6.20;;;3.53;;
5882;SDS011;2967;51.488;6.618;2022-08-07T00:41:29;4.20;;;3.43;;
5882;SDS011;2967;51.488;6.618;2022-08-07T00:46:59;7.30;;;4.37;;
5882;SDS011;2967;51.488;6.618;2022-08-07T00:52:22;5.63;;;3.60;;
5882;SDS011;2967;51.488;6.618;2022-08-07T00:57:45;6.13;;;4.50;;
5882;SDS011;2967;51.488;6.618;2022-08-07T01:03:18;5.13;;;4.40;;
5882;SDS011;2967;51.488;6.618;2022-08-07T01:09:02;5.40;;;3.90;;
5882;SDS011;2967;51.488;6.618;2022-08-07T01:14:28;4.20;;;3.67;;
5882;SDS011;2967;51.488;6.618;2022-08-07T01:19:54;7.60;;;4.10;;
5882;SDS011;2967;51.488;6.618;2022-08-07T01:25:26;3.70;;;3.30;;
5882;SDS011;2967;51.488;6.618;2022-08-07T01:31:10;9.40;;;4.60;;
5882;SDS011;2967;51.488;6.618;2022-08-07T01:36:39;5.10;;;4.47;;
5882;SDS011;2967;51.488;6.618;2022-08-07T01:42:12;4.17;;;3.73;;
5882;SDS011;2967;51.488;6.618;2022-08-07T01:47:56;5.00;;;4.33;;
5882;SDS011;2967;51.488;6.618;2022-08-07T01:53:41;6.93;;;4.20;;
5882;SDS011;2967;51.488;6.618;2022-08-07T01:59:31;4.23;;;3.70;;
5882;SDS011;2967;51.488;6.618;2022-08-07T02:05:05;5.63;;;4.23;;
5882;SDS011;2967;51.488;6.618;2022-08-07T02:10:53;4.83;;;3.97;;
5882;SDS011;2967;51.488;6.618;2022-08-07T02:16:23;5.50;;;4.17;;
5882;SDS011;2967;51.488;6.618;2022-08-07T02:21:54;5.13;;;4.03;;
5882;SDS011;2967;51.488;6.618;2022-08-07T02:27:21;9.53;;;3.70;;
5882;SDS011;2967;51.488;6.618;2022-08-07T02:32:47;3.63;;;3.03;;
5882;SDS011;2967;51.488;6.618;2022-08-07T02:38:31;5.20;;;3.73;;
5882;SDS011;2967;51.488;6.618;2022-08-07T02:43:58;5.60;;;4.07;;
5882;SDS011;2967;51.488;6.618;2022-08-07T02:49:27;8.87;;;4.37;;
5882;SDS011;2967;51.488;6.618;2022-08-07T02:55:14;6.00;;;4.33;;
5882;SDS011;2967;51.488;6.618;2022-08-07T03:01:00;6.40;;;4.20;;
5882;SDS011;2967;51.488;6.618;2022-08-07T03:06:32;5.20;;;4.47;;
5882;SDS011;2967;51.488;6.618;2022-08-07T03:12:00;5.37;;;4.87;;
5882;SDS011;2967;51.488;6.618;2022-08-07T03:17:26;7.30;;;4.77;;
5882;SDS011;2967;51.488;6.618;2022-08-07T03:23:01;5.57;;;4.70;;
5882;SDS011;2967;51.488;6.618;2022-08-07T03:28:39;8.83;;;3.87;;
5882;SDS011;2967;51.488;6.618;2022-08-07T03:34:05;6.40;;;4.93;;
5882;SDS011;2967;51.488;6.618;2022-08-07T03:39:40;5.57;;;3.67;;
5882;SDS011;2967;51.488;6.618;2022-08-07T03:45:22;5.40;;;4.43;;
5882;SDS011;2967;51.488;6.618;2022-08-07T03:50:55;5.47;;;4.87;;
5882;SDS011;2967;51.488;6.618;2022-08-07T03:56:30;6.40;;;4.20;;
5882;SDS011;2967;51.488;6.618;2022-08-07T04:01:58;7.80;;;5.03;;
5882;SDS011;2967;51.488;6.618;2022-08-07T04:07:22;6.93;;;5.00;;
5882;SDS011;2967;51.488;6.618;2022-08-07T04:12:47;5.10;;;4.60;;
5882;SDS011;2967;51.488;6.618;2022-08-07T04:18:12;5.77;;;5.17;;
5882;SDS011;2967;51.488;6.618;2022-08-07T04:23:55;4.67;;;4.27;;
5882;SDS011;2967;51.488;6.618;2022-08-07T04:29:29;7.23;;;4.97;;
5882;SDS011;2967;51.488;6.618;2022-08-07T04:35:13;6.00;;;5.10;;
5882;SDS011;2967;51.488;6.618;2022-08-07T04:40:38;5.87;;;4.97;;
5882;SDS011;2967;51.488;6.618;2022-08-07T04:46:17;6.23;;;4.90;;
5882;SDS011;2967;51.488;6.618;2022-08-07T04:51:59;6.80;;;4.90;;
5882;SDS011;2967;51.488;6.618;2022-08-07T04:57:31;5.93;;;4.50;;
5882;SDS011;2967;51.488;6.618;2022-08-07T05:03:26;7.83;;;5.30;;
5882;SDS011;2967;51.488;6.618;2022-08-07T05:09:17;5.73;;;4.70;;
5882;SDS011;2967;51.488;6.618;2022-08-07T05:15:05;7.13;;;6.43;;
5882;SDS011;2967;51.488;6.618;2022-08-07T05:20:50;5.93;;;5.10;;
5882;SDS011;2967;51.488;6.618;2022-08-07T05:26:18;5.53;;;5.07;;
5882;SDS011;2967;51.488;6.618;2022-08-07T05:31:56;7.30;;;5.10;;
5882;SDS011;2967;51.488;6.618;2022-08-07T05:37:26;7.10;;;6.00;;
5882;SDS011;2967;51.488;6.618;2022-08-07T05:42:57;9.73;;;6.20;;
5882;SDS011;2967;51.488;6.618;2022-08-07T05:48:20;6.90;;;5.60;;
5882;SDS011;2967;51.488;6.618;2022-08-07T05:53:50;6.70;;;5.70;;
5882;SDS011;2967;51.488;6.618;2022-08-07T05:59:35;8.83;;;5.87;;
5882;SDS011;2967;51.488;6.618;2022-08-07T06:05:19;18.53;;;13.67;;
5882;SDS011;2967;51.488;6.618;2022-08-07T06:10:54;6.80;;;5.77;;
5882;SDS011;2967;51.488;6.618;2022-08-07T06:16:17;7.07;;;5.30;;
5882;SDS011;2967;51.488;6.618;2022-08-07T06:21:50;6.30;;;4.77;;
5882;SDS011;2967;51.488;6.618;2022-08-07T06:27:37;8.87;;;6.40;;
5882;SDS011;2967;51.488;6.618;2022-08-07T06:33:20;7.50;;;5.30;;
5882;SDS011;2967;51.488;6.618;2022-08-07T06:38:44;5.90;;;4.67;;
5882;SDS011;2967;51.488;6.618;2022-08-07T06:44:23;7.20;;;5.20;;
5882;SDS011;2967;51.488;6.618;2022-08-07T06:49:56;8.67;;;5.00;;
5882;SDS011;2967;51.488;6.618;2022-08-07T06:55:27;7.13;;;5.00;;
5882;SDS011;2967;51.488;6.618;2022-08-07T07:01:13;5.77;;;4.70;;
5882;SDS011;2967;51.488;6.618;2022-08-07T07:06:37;5.30;;;4.10;;
5882;SDS011;2967;51.488;6.618;2022-08-07T07:12:29;8.20;;;4.60;;
5882;SDS011;2967;51.488;6.618;2022-08-07T07:18:11;8.30;;;4.47;;
5882;SDS011;2967;51.488;6.618;2022-08-07T07:23:57;7.67;;;4.30;;
5882;SDS011;2967;51.488;6.618;2022-08-07T07:29:33;8.50;;;4.90;;
5882;SDS011;2967;51.488;6.618;2022-08-07T07:35:20;10.53;;;5.00;;
5882;SDS011;2967;51.488;6.618;2022-08-07T07:40:55;9.67;;;4.20;;
5882;SDS011;2967;51.488;6.618;2022-08-07T07:46:23;9.13;;;5.03;;
5882;SDS011;2967;51.488;6.618;2022-08-07T07:52:09;6.40;;;4.30;;
5882;SDS011;2967;51.488;6.618;2022-08-07T07:57:33;12.70;;;5.37;;
5882;SDS011;2967;51.488;6.618;2022-08-07T08:03:14;11.47;;;4.40;;
5882;SDS011;2967;51.488;6.618;2022-08-07T08:09:03;5.00;;;2.97;;
5882;SDS011;2967;51.488;6.618;2022-08-07T08:14:30;7.30;;;4.50;;
5882;SDS011;2967;51.488;6.618;2022-08-07T08:19:58;3.47;;;2.47;;
5882;SDS011;2967;51.488;6.618;2022-08-07T08:25:45;7.10;;;3.17;;
5882;SDS011;2967;51.488;6.618;2022-08-07T08:31:29;5.83;;;2.37;;
5882;SDS011;2967;51.488;6.618;2022-08-07T08:37:24;4.90;;;1.80;;
5882;SDS011;2967;51.488;6.618;2022-08-07T08:43:12;3.97;;;2.70;;
5882;SDS011;2967;51.488;6.618;2022-08-07T08:48:53;3.67;;;2.27;;
5882;SDS011;2967;51.488;6.618;2022-08-07T08:54:21;6.37;;;2.70;;
5882;SDS011;2967;51.488;6.618;2022-08-07T08:59:52;4.13;;;3.10;;
5882;SDS011;2967;51.488;6.618;2022-08-07T09:05:25;5.87;;;2.80;;
5882;SDS011;2967;51.488;6.618;2022-08-07T09:11:00;2.83;;;1.90;;
5882;SDS011;2967;51.488;6.618;2022-08-07T09:16:49;2.93;;;1.10;;
5882;SDS011;2967;51.488;6.618;2022-08-07T09:22:33;2.60;;;1.50;;
5882;SDS011;2967;51.488;6.618;2022-08-07T09:28:26;2.40;;;1.20;;
5882;SDS011;2967;51.488;6.618;2022-08-07T09:34:15;8.17;;;1.63;;
5882;SDS011;2967;51.488;6.618;2022-08-07T09:39:48;2.60;;;1.53;;
5882;SDS011;2967;51.488;6.618;2022-08-07T09:45:22;3.67;;;1.83;;
5882;SDS011;2967;51.488;6.618;2022-08-07T09:51:23;1.10;;;1.00;;
5882;SDS011;2967;51.488;6.618;2022-08-07T10:03:31;1.60;;;1.37;;
5882;SDS011;2967;51.488;6.618;2022-08-07T10:15:30;2.70;;;1.70;;
5882;SDS011;2967;51.488;6.618;2022-08-07T10:21:09;4.20;;;1.40;;
5882;SDS011;2967;51.488;6.618;2022-08-07T10:27:05;4.63;;;0.90;;
5882;SDS011;2967;51.488;6.618;2022-08-07T10:32:50;4.33;;;1.70;;
5882;SDS011;2967;51.488;6.618;2022-08-07T10:38:34;3.13;;;1.30;;
5882;SDS011;2967;51.488;6.618;2022-08-07T10:44:14;1.93;;;1.10;;
5882;SDS011;2967;51.488;6.618;2022-08-07T10:49:52;1.60;;;1.33;;
5882;SDS011;2967;51.488;6.618;2022-08-07T10:55:20;1.23;;;0.97;;
5882;SDS011;2967;51.488;6.618;2022-08-07T11:01:07;2.00;;;1.20;;
5882;SDS011;2967;51.488;6.618;2022-08-07T11:06:46;1.97;;;1.00;;
5882;SDS011;2967;51.488;6.618;2022-08-07T11:12:47;3.70;;;2.40;;
5882;SDS011;2967;51.488;6.618;2022-08-07T11:18:28;1.70;;;1.50;;
5882;SDS011;2967;51.488;6.618;2022-08-07T11:23:56;3.10;;;1.47;;
5882;SDS011;2967;51.488;6.618;2022-08-07T11:29:32;1.80;;;1.33;;
5882;SDS011;2967;51.488;6.618;2022-08-07T11:35:10;2.03;;;1.23;;
5882;SDS011;2967;51.488;6.618;2022-08-07T11:40:48;6.87;;;1.23;;
5882;SDS011;2967;51.488;6.618;2022-08-07T11:46:26;2.50;;;1.40;;
5882;SDS011;2967;51.488;6.618;2022-08-07T11:52:07;1.33;;;0.90;;
5882;SDS011;2967;51.488;6.618;2022-08-07T11:57:51;4.20;;;1.47;;
5882;SDS011;2967;51.488;6.618;2022-08-07T12:03:31;1.50;;;1.40;;
5882;SDS011;2967;51.488;6.618;2022-08-07T12:09:10;1.57;;;1.20;;
5882;SDS011;2967;51.488;6.618;2022-08-07T12:14:46;1.17;;;1.00;;
5882;SDS011;2967;51.488;6.618;2022-08-07T12:20:19;1.37;;;1.00;;
5882;SDS011;2967;51.488;6.618;2022-08-07T12:26:02;2.60;;;1.30;;
5882;SDS011;2967;51.488;6.618;2022-08-07T12:31:48;3.13;;;1.30;;
5882;SDS011;2967;51.488;6.618;2022-08-07T12:37:25;3.60;;;1.43;;
5882;SDS011;2967;51.488;6.618;2022-08-07T12:43:11;2.73;;;1.10;;
5882;SDS011;2967;51.488;6.618;2022-08-07T12:48:57;1.23;;;1.10;;
5882;SDS011;2967;51.488;6.618;2022-08-07T12:54:48;1.53;;;1.07;;
5882;SDS011;2967;51.488;6.618;2022-08-07T13:00:26;3.37;;;1.50;;
5882;SDS011;2967;51.488;6.618;2022-08-07T13:06:14;1.50;;;1.00;;
5882;SDS011;2967;51.488;6.618;2022-08-07T13:11:49;3.33;;;1.30;;
5882;SDS011;2967;51.488;6.618;2022-08-07T13:17:29;6.50;;;1.60;;
5882;SDS011;2967;51.488;6.618;2022-08-07T13:23:03;1.63;;;1.10;;
5882;SDS011;2967;51.488;6.618;2022-08-07T13:28:54;1.03;;;0.90;;
5882;SDS011;2967;51.488;6.618;2022-08-07T13:34:24;3.93;;;1.40;;
5882;SDS011;2967;51.488;6.618;2022-08-07T13:40:04;4.20;;;1.40;;
5882;SDS011;2967;51.488;6.618;2022-08-07T13:45:58;2.20;;;1.30;;
5882;SDS011;2967;51.488;6.618;2022-08-07T13:51:44;1.70;;;1.23;;
5882;SDS011;2967;51.488;6.618;2022-08-07T13:57:28;3.07;;;2.77;;
5882;SDS011;2967;51.488;6.618;2022-08-07T14:02:59;1.83;;;1.30;;
5882;SDS011;2967;51.488;6.618;2022-08-07T14:08:26;1.40;;;1.20;;
5882;SDS011;2967;51.488;6.618;2022-08-07T14:13:51;2.00;;;1.53;;
5882;SDS011;2967;51.488;6.618;2022-08-07T14:19:22;2.10;;;1.50;;
5882;SDS011;2967;51.488;6.618;2022-08-07T14:25:22;1.90;;;1.50;;
5882;SDS011;2967;51.488;6.618;2022-08-07T14:30:59;2.03;;;1.37;;
5882;SDS011;2967;51.488;6.618;2022-08-07T14:36:23;2.73;;;1.20;;
5882;SDS011;2967;51.488;6.618;2022-08-07T14:41:49;2.60;;;1.50;;
5882;SDS011;2967;51.488;6.618;2022-08-07T14:47:34;1.47;;;1.10;;
5882;SDS011;2967;51.488;6.618;2022-08-07T14:52:58;3.67;;;1.47;;
5882;SDS011;2967;51.488;6.618;2022-08-07T14:58:31;2.33;;;1.17;;
5882;SDS011;2967;51.488;6.618;2022-08-07T15:03:58;3.20;;;1.10;;
5882;SDS011;2967;51.488;6.618;2022-08-07T15:09:27;2.77;;;1.73;;
5882;SDS011;2967;51.488;6.618;2022-08-07T15:15:15;2.20;;;1.40;;
5882;SDS011;2967;51.488;6.618;2022-08-07T15:20:46;1.47;;;1.30;;
5882;SDS011;2967;51.488;6.618;2022-08-07T15:26:18;5.03;;;1.43;;
5882;SDS011;2967;51.488;6.618;2022-08-07T15:31:50;1.60;;;1.40;;
5882;SDS011;2967;51.488;6.618;2022-08-07T15:37:25;2.20;;;1.40;;
5882;SDS011;2967;51.488;6.618;2022-08-07T15:43:14;1.83;;;1.43;;
5882;SDS011;2967;51.488;6.618;2022-08-07T15:49:02;1.83;;;1.30;;
5882;SDS011;2967;51.488;6.618;2022-08-07T15:54:35;2.37;;;1.20;;
5882;SDS011;2967;51.488;6.618;2022-08-07T16:00:02;2.30;;;2.10;;
5882;SDS011;2967;51.488;6.618;2022-08-07T16:05:29;2.13;;;1.37;;
5882;SDS011;2967;51.488;6.618;2022-08-07T16:10:55;3.00;;;1.53;;
5882;SDS011;2967;51.488;6.618;2022-08-07T16:22:39;3.57;;;1.20;;
5882;SDS011;2967;51.488;6.618;2022-08-07T16:28:20;1.50;;;1.40;;
5882;SDS011;2967;51.488;6.618;2022-08-07T16:34:26;2.17;;;1.57;;
5882;SDS011;2967;51.488;6.618;2022-08-07T16:40:10;2.00;;;1.43;;
5882;SDS011;2967;51.488;6.618;2022-08-07T16:45:54;4.00;;;1.50;;
5882;SDS011;2967;51.488;6.618;2022-08-07T16:51:51;1.87;;;1.40;;
5882;SDS011;2967;51.488;6.618;2022-08-07T16:57:47;1.93;;;1.80;;
5882;SDS011;2967;51.488;6.618;2022-08-07T17:03:24;1.50;;;1.20;;
5882;SDS011;2967;51.488;6.618;2022-08-07T17:09:17;1.70;;;1.60;;
5882;SDS011;2967;51.488;6.618;2022-08-07T17:15:16;2.30;;;1.60;;
5882;SDS011;2967;51.488;6.618;2022-08-07T17:21:10;1.70;;;1.53;;
5882;SDS011;2967;51.488;6.618;2022-08-07T17:26:45;2.70;;;1.93;;
5882;SDS011;2967;51.488;6.618;2022-08-07T17:32:18;4.50;;;2.23;;
5882;SDS011;2967;51.488;6.618;2022-08-07T17:37:58;2.40;;;1.50;;
5882;SDS011;2967;51.488;6.618;2022-08-07T17:43:37;4.80;;;2.10;;
5882;SDS011;2967;51.488;6.618;2022-08-07T17:49:28;2.63;;;1.77;;
5882;SDS011;2967;51.488;6.618;2022-08-07T17:55:07;8.00;;;2.10;;
5882;SDS011;2967;51.488;6.618;2022-08-07T18:00:37;2.13;;;1.60;;
5882;SDS011;2967;51.488;6.618;2022-08-07T18:06:11;2.50;;;1.67;;
5882;SDS011;2967;51.488;6.618;2022-08-07T18:11:38;3.83;;;1.53;;
5882;SDS011;2967;51.488;6.618;2022-08-07T18:17:27;2.40;;;1.67;;
5882;SDS011;2967;51.488;6.618;2022-08-07T18:23:23;5.43;;;2.20;;
5882;SDS011;2967;51.488;6.618;2022-08-07T18:29:08;7.30;;;2.00;;
5882;SDS011;2967;51.488;6.618;2022-08-07T18:35:07;6.30;;;2.20;;
5882;SDS011;2967;51.488;6.618;2022-08-07T18:40:40;2.13;;;1.93;;
5882;SDS011;2967;51.488;6.618;2022-08-07T18:46:31;5.07;;;3.17;;
5882;SDS011;2967;51.488;6.618;2022-08-07T18:52:06;3.10;;;2.10;;
5882;SDS011;2967;51.488;6.618;2022-08-07T18:58:06;2.40;;;1.70;;
5882;SDS011;2967;51.488;6.618;2022-08-07T19:03:43;1.93;;;1.63;;
5882;SDS011;2967;51.488;6.618;2022-08-07T19:09:15;2.80;;;1.77;;
5882;SDS011;2967;51.488;6.618;2022-08-07T19:15:06;4.10;;;1.67;;
5882;SDS011;2967;51.488;6.618;2022-08-07T19:20:58;2.83;;;2.03;;
5882;SDS011;2967;51.488;6.618;2022-08-07T19:26:40;1.83;;;1.50;;
5882;SDS011;2967;51.488;6.618;2022-08-07T19:32:26;1.90;;;1.80;;
5882;SDS011;2967;51.488;6.618;2022-08-07T19:38:08;5.63;;;1.90;;
5882;SDS011;2967;51.488;6.618;2022-08-07T19:43:38;3.03;;;1.80;;
5882;SDS011;2967;51.488;6.618;2022-08-07T19:49:20;2.63;;;2.13;;
5882;SDS011;2967;51.488;6.618;2022-08-07T19:55:05;4.00;;;2.67;;
5882;SDS011;2967;51.488;6.618;2022-08-07T20:00:31;2.70;;;2.13;;
5882;SDS011;2967;51.488;6.618;2022-08-07T20:05:58;3.93;;;2.50;;
5882;SDS011;2967;51.488;6.618;2022-08-07T20:11:23;2.97;;;2.50;;
5882;SDS011;2967;51.488;6.618;2022-08-07T20:17:10;2.70;;;2.50;;
5882;SDS011;2967;51.488;6.618;2022-08-07T20:22:36;3.50;;;2.53;;
5882;SDS011;2967;51.488;6.618;2022-08-07T20:28:07;3.70;;;2.50;;
5882;SDS011;2967;51.488;6.618;2022-08-07T20:33:36;4.87;;;2.73;;
5882;SDS011;2967;51.488;6.618;2022-08-07T20:39:04;3.47;;;2.73;;
5882;SDS011;2967;51.488;6.618;2022-08-07T20:44:48;10.30;;;2.30;;
5882;SDS011;2967;51.488;6.618;2022-08-07T20:50:15;3.17;;;2.40;;
5882;SDS011;2967;51.488;6.618;2022-08-07T20:55:45;3.00;;;2.70;;
5882;SDS011;2967;51.488;6.618;2022-08-07T21:01:13;3.00;;;2.63;;
5882;SDS011;2967;51.488;6.618;2022-08-07T21:06:41;2.83;;;2.60;;
5882;SDS011;2967;51.488;6.618;2022-08-07T21:12:15;5.23;;;2.40;;
5882;SDS011;2967;51.488;6.618;2022-08-07T21:17:50;3.93;;;2.50;;
5882;SDS011;2967;51.488;6.618;2022-08-07T21:23:28;4.27;;;2.77;;
5882;SDS011;2967;51.488;6.618;2022-08-07T21:29:13;2.40;;;2.20;;
5882;SDS011;2967;51.488;6.618;2022-08-07T21:34:41;4.50;;;2.43;;
5882;SDS011;2967;51.488;6.618;2022-08-07T21:40:11;4.23;;;2.60;;
5882;SDS011;2967;51.488;6.618;2022-08-07T21:45:50;2.83;;;2.60;;
5882;SDS011;2967;51.488;6.618;2022-08-07T21:51:38;4.70;;;2.50;;
5882;SDS011;2967;51.488;6.618;2022-08-07T21:57:19;2.47;;;2.10;;
5882;SDS011;2967;51.488;6.618;2022-08-07T22:03:07;4.90;;;2.10;;
5882;SDS011;2967;51.488;6.618;2022-08-07T22:08:41;2.63;;;2.30;;
5882;SDS011;2967;51.488;6.618;2022-08-07T22:14:10;3.07;;;2.30;;
5882;SDS011;2967;51.488;6.618;2022-08-07T22:19:54;2.90;;;2.57;;
5882;SDS011;2967;51.488;6.618;2022-08-07T22:25:31;3.97;;;2.30;;
5882;SDS011;2967;51.488;6.618;2022-08-07T22:31:04;3.30;;;2.20;;
5882;SDS011;2967;51.488;6.618;2022-08-07T22:36:54;2.37;;;2.17;;
5882;SDS011;2967;51.488;6.618;2022-08-07T22:42:33;7.47;;;2.40;;
5882;SDS011;2967;51.488;6.618;2022-08-07T22:48:01;7.83;;;2.80;;
5882;SDS011;2967;51.488;6.618;2022-08-07T22:53:53;3.53;;;2.40;;
5882;SDS011;2967;51.488;6.618;2022-08-07T22:59:35;3.50;;;2.50;;
5882;SDS011;2967;51.488;6.618;2022-08-07T23:05:23;4.60;;;2.53;;
5882;SDS011;2967;51.488;6.618;2022-08-07T23:11:30;3.30;;;2.63;;
5882;SDS011;2967;51.488;6.618;2022-08-07T23:17:11;3.73;;;2.70;;
5882;SDS011;2967;51.488;6.618;2022-08-07T23:22:48;3.10;;;2.67;;
5882;SDS011;2967;51.488;6.618;2022-08-07T23:28:27;2.90;;;2.70;;
5882;SDS011;2967;51.488;6.618;2022-08-07T23:34:19;5.53;;;3.10;;
5882;SDS011;2967;51.488;6.618;2022-08-07T23:40:05;5.20;;;3.40;;
5882;SDS011;2967;51.488;6.618;2022-08-07T23:45:48;3.60;;;2.97;;
5882;SDS011;2967;51.488;6.618;2022-08-07T23:51:28;3.63;;;3.23;;
5882;SDS011;2967;51.488;6.618;2022-08-07T23:57:16;3.90;;;3.13;;
